createdAt,value
2017-04-21T00:00:54.149Z,0
2017-04-21T00:02:06.673Z,0
2017-04-21T00:03:19.218Z,0
2017-04-21T00:04:31.736Z,0
2017-04-21T00:05:44.263Z,0
2017-04-21T00:06:56.793Z,0
2017-04-21T00:08:09.305Z,0
2017-04-21T00:09:21.843Z,0
2017-04-21T00:10:34.363Z,0
2017-04-21T00:11:46.934Z,0
2017-04-21T00:12:59.831Z,0
2017-04-21T00:14:12.405Z,0
2017-04-21T00:15:24.926Z,0
2017-04-21T00:16:37.443Z,0
2017-04-21T00:17:49.959Z,0
2017-04-21T00:19:02.514Z,0
2017-04-21T00:20:15.048Z,0
2017-04-21T00:21:27.533Z,0
2017-04-21T00:22:40.056Z,0
2017-04-21T00:23:52.295Z,0
2017-04-21T00:25:04.819Z,0
2017-04-21T00:26:17.357Z,0
2017-04-21T00:27:29.899Z,0
2017-04-21T00:28:42.427Z,0
2017-04-21T00:29:54.976Z,0
2017-04-21T00:31:07.885Z,0
2017-04-21T00:32:20.468Z,0
2017-04-21T00:33:33.015Z,0
2017-04-21T00:34:45.540Z,0
2017-04-21T00:35:58.066Z,0
2017-04-21T00:37:10.618Z,0
2017-04-21T00:38:23.147Z,0
2017-04-21T00:39:35.365Z,0
2017-04-21T00:40:47.889Z,0
2017-04-21T00:42:00.423Z,0
2017-04-21T00:43:12.933Z,0
2017-04-21T00:44:25.450Z,0
2017-04-21T00:45:37.969Z,0
2017-04-21T00:46:50.496Z,0
2017-04-21T00:48:02.715Z,0
2017-04-21T00:49:14.907Z,0
2017-04-21T00:50:27.453Z,0
2017-04-21T00:51:40.054Z,0
2017-04-21T00:52:52.288Z,0
2017-04-21T00:54:04.521Z,0
2017-04-21T00:55:17.061Z,0
2017-04-21T00:56:29.583Z,0
2017-04-21T00:57:42.109Z,0
2017-04-21T00:58:54.634Z,0
2017-04-21T01:00:07.187Z,0
2017-04-21T01:01:19.709Z,0
2017-04-21T01:02:32.215Z,0
2017-04-21T01:03:44.761Z,0
2017-04-21T01:04:57.309Z,0
2017-04-21T01:06:09.824Z,0
2017-04-21T01:07:22.050Z,0
2017-04-21T01:08:34.834Z,0
2017-04-21T01:09:47.483Z,0
2017-04-21T01:11:00.108Z,0
2017-04-21T01:12:12.604Z,0
2017-04-21T01:13:25.110Z,0
2017-04-21T01:14:37.649Z,0
2017-04-21T01:15:50.163Z,0
2017-04-21T01:17:02.693Z,0
2017-04-21T01:18:15.212Z,0
2017-04-21T01:19:27.738Z,0
2017-04-21T01:20:40.278Z,0
2017-04-21T01:21:52.772Z,0
2017-04-21T01:23:05.270Z,0
2017-04-21T01:24:17.819Z,0
2017-04-21T01:25:30.662Z,0
2017-04-21T01:26:43.180Z,0
2017-04-21T01:27:55.853Z,0
2017-04-21T01:29:08.422Z,0
2017-04-21T01:30:21.197Z,0
2017-04-21T01:31:33.722Z,0
2017-04-21T01:32:46.264Z,0
2017-04-21T01:33:58.798Z,0
2017-04-21T01:35:11.318Z,0
2017-04-21T01:36:23.847Z,0
2017-04-21T01:37:36.345Z,0
2017-04-21T01:38:48.567Z,0
2017-04-21T01:40:01.088Z,0
2017-04-21T01:41:13.325Z,0
2017-04-21T01:42:25.869Z,0
2017-04-21T01:43:38.098Z,0
2017-04-21T01:44:50.619Z,0
2017-04-21T01:46:03.344Z,0
2017-04-21T01:47:14.681Z,0
2017-04-21T01:48:27.251Z,0
2017-04-21T01:49:39.457Z,0
2017-04-21T01:50:51.978Z,0
2017-04-21T01:52:04.491Z,0
2017-04-21T01:53:16.711Z,0
2017-04-21T01:54:29.210Z,0
2017-04-21T01:55:41.753Z,0
2017-04-21T01:56:53.970Z,0
2017-04-21T01:58:06.476Z,0
2017-04-21T01:59:19.024Z,0
2017-04-21T02:00:31.565Z,0
2017-04-21T02:01:44.091Z,0
2017-04-21T02:02:56.333Z,0
2017-04-21T02:04:09.058Z,0
2017-04-21T02:05:21.557Z,0
2017-04-21T02:06:34.098Z,0
2017-04-21T02:07:46.659Z,0
2017-04-21T02:08:58.896Z,0
2017-04-21T02:10:11.453Z,0
2017-04-21T02:11:23.975Z,0
2017-04-21T02:12:36.477Z,0
2017-04-21T02:13:48.699Z,0
2017-04-21T02:15:01.263Z,0
2017-04-21T02:16:13.787Z,0
2017-04-21T02:17:26.012Z,0
2017-04-21T02:18:38.546Z,0
2017-04-21T02:19:51.054Z,0
2017-04-21T02:21:03.600Z,0
2017-04-21T02:22:16.148Z,0
2017-04-21T02:23:28.792Z,0
2017-04-21T02:24:41.030Z,0
2017-04-21T02:25:53.557Z,0
2017-04-21T02:27:06.101Z,0
2017-04-21T02:28:18.642Z,0
2017-04-21T02:29:31.197Z,0
2017-04-21T02:30:43.420Z,0
2017-04-21T02:31:55.959Z,0
2017-04-21T02:33:08.458Z,0
2017-04-21T02:34:20.976Z,0
2017-04-21T02:35:33.743Z,0
2017-04-21T02:36:45.971Z,0
2017-04-21T02:37:58.491Z,0
2017-04-21T02:39:10.710Z,0
2017-04-21T02:40:23.223Z,0
2017-04-21T02:41:35.755Z,0
2017-04-21T02:42:48.376Z,0
2017-04-21T02:44:00.918Z,0
2017-04-21T02:45:13.107Z,0
2017-04-21T02:46:25.653Z,0
2017-04-21T02:47:38.162Z,0
2017-04-21T02:48:50.704Z,0
2017-04-21T02:50:03.227Z,0
2017-04-21T02:51:15.493Z,0
2017-04-21T02:52:27.707Z,0
2017-04-21T02:53:39.940Z,0
2017-04-21T02:54:52.485Z,0
2017-04-21T02:56:04.723Z,0
2017-04-21T02:57:17.516Z,0
2017-04-21T02:58:30.020Z,0
2017-04-21T02:59:42.245Z,0
2017-04-21T03:00:54.763Z,0
2017-04-21T03:02:07.282Z,0
2017-04-21T03:03:19.528Z,0
2017-04-21T03:04:31.745Z,0
2017-04-21T03:05:44.274Z,0
2017-04-21T03:06:56.801Z,0
2017-04-21T03:08:09.370Z,0
2017-04-21T03:09:21.904Z,0
2017-04-21T03:10:34.474Z,0
2017-04-21T03:11:46.706Z,0
2017-04-21T03:12:59.224Z,0
2017-04-21T03:14:11.744Z,0
2017-04-21T03:15:24.306Z,0
2017-04-21T03:16:36.833Z,0
2017-04-21T03:17:49.375Z,0
2017-04-21T03:19:01.286Z,0
2017-04-21T03:20:13.946Z,0
2017-04-21T03:21:26.816Z,0
2017-04-21T03:22:39.334Z,0
2017-04-21T03:23:51.884Z,4
2017-04-21T03:25:04.109Z,4
2017-04-21T03:26:16.629Z,0
2017-04-21T03:27:28.550Z,4
2017-04-21T03:28:40.792Z,8
2017-04-21T03:29:53.588Z,4
2017-04-21T03:31:06.129Z,8
2017-04-21T03:32:18.348Z,12
2017-04-21T03:33:30.880Z,8
2017-04-21T03:34:43.115Z,16
2017-04-21T03:35:55.643Z,16
2017-04-21T03:37:08.167Z,24
2017-04-21T03:38:20.660Z,28
2017-04-21T03:39:33.286Z,32
2017-04-21T03:40:46.080Z,40
2017-04-21T03:41:58.615Z,48
2017-04-21T03:43:10.518Z,60
2017-04-21T03:44:23.039Z,72
2017-04-21T03:45:35.538Z,84
2017-04-21T03:46:48.082Z,100
2017-04-21T03:48:00.602Z,120
2017-04-21T03:49:13.145Z,136
2017-04-21T03:50:25.664Z,164
2017-04-21T03:51:38.157Z,188
2017-04-21T03:52:50.702Z,212
2017-04-21T03:54:03.233Z,244
2017-04-21T03:55:15.452Z,276
2017-04-21T03:56:27.977Z,304
2017-04-21T03:57:40.265Z,340
2017-04-21T03:58:52.793Z,368
2017-04-21T04:00:05.353Z,400
2017-04-21T04:01:17.875Z,436
2017-04-21T04:02:30.696Z,472
2017-04-21T04:03:43.245Z,512
2017-04-21T04:04:55.775Z,548
2017-04-21T04:06:08.284Z,580
2017-04-21T04:07:20.816Z,620
2017-04-21T04:08:33.636Z,660
2017-04-21T04:09:46.170Z,700
2017-04-21T04:10:58.675Z,736
2017-04-21T04:12:10.875Z,772
2017-04-21T04:13:23.391Z,804
2017-04-21T04:14:35.912Z,836
2017-04-21T04:15:48.558Z,868
2017-04-21T04:17:01.071Z,896
2017-04-21T04:18:13.599Z,924
2017-04-21T04:19:25.796Z,960
2017-04-21T04:20:38.309Z,1004
2017-04-21T04:21:50.812Z,1060
2017-04-21T04:23:03.309Z,1120
2017-04-21T04:24:15.825Z,1180
2017-04-21T04:25:28.335Z,1244
2017-04-21T04:26:40.868Z,1304
2017-04-21T04:27:53.396Z,1348
2017-04-21T04:29:05.937Z,1340
2017-04-21T04:30:18.762Z,1316
2017-04-21T04:31:31.279Z,1316
2017-04-21T04:32:44.180Z,1320
2017-04-21T04:33:56.753Z,1360
2017-04-21T04:35:09.284Z,1492
2017-04-21T04:36:21.793Z,1628
2017-04-21T04:37:34.312Z,1720
2017-04-21T04:38:46.839Z,1800
2017-04-21T04:39:59.056Z,1864
2017-04-21T04:41:11.847Z,1924
2017-04-21T04:42:24.067Z,1980
2017-04-21T04:43:36.294Z,2032
2017-04-21T04:44:48.837Z,2076
2017-04-21T04:46:01.051Z,2136
2017-04-21T04:47:13.281Z,2192
2017-04-21T04:48:25.827Z,2248
2017-04-21T04:49:38.372Z,2328
2017-04-21T04:50:51.217Z,2432
2017-04-21T04:52:03.890Z,2548
2017-04-21T04:53:16.106Z,2660
2017-04-21T04:54:28.605Z,2788
2017-04-21T04:55:41.143Z,2944
2017-04-21T04:56:53.387Z,3112
2017-04-21T04:58:05.918Z,3256
2017-04-21T04:59:18.410Z,3396
2017-04-21T05:00:30.927Z,3524
2017-04-21T05:01:43.184Z,3668
2017-04-21T05:02:55.728Z,3788
2017-04-21T05:04:07.965Z,3876
2017-04-21T05:05:20.194Z,3936
2017-04-21T05:06:32.728Z,3972
2017-04-21T05:07:45.233Z,4020
2017-04-21T05:08:57.758Z,4008
2017-04-21T05:10:10.444Z,3884
2017-04-21T05:11:22.978Z,3832
2017-04-21T05:12:35.494Z,3920
2017-04-21T05:13:48.059Z,4020
2017-04-21T05:15:00.582Z,4112
2017-04-21T05:16:13.096Z,4176
2017-04-21T05:17:25.327Z,4228
2017-04-21T05:18:37.870Z,4276
2017-04-21T05:19:50.389Z,4348
2017-04-21T05:21:02.912Z,4444
2017-04-21T05:22:15.438Z,4508
2017-04-21T05:23:28.000Z,4580
2017-04-21T05:24:40.546Z,4696
2017-04-21T05:25:52.795Z,4864
2017-04-21T05:27:05.638Z,5000
2017-04-21T05:28:18.265Z,5088
2017-04-21T05:29:31.075Z,5156
2017-04-21T05:30:43.646Z,5260
2017-04-21T05:31:56.146Z,5384
2017-04-21T05:33:08.653Z,5484
2017-04-21T05:34:21.169Z,5584
2017-04-21T05:35:33.440Z,5688
2017-04-21T05:36:45.958Z,5800
2017-04-21T05:37:58.492Z,5904
2017-04-21T05:39:10.706Z,5992
2017-04-21T05:40:23.503Z,6056
2017-04-21T05:41:35.738Z,6104
2017-04-21T05:42:48.242Z,6136
2017-04-21T05:44:00.634Z,6240
2017-04-21T05:45:13.175Z,6356
2017-04-21T05:46:25.779Z,6468
2017-04-21T05:47:38.302Z,6600
2017-04-21T05:48:50.835Z,6776
2017-04-21T05:50:03.360Z,6952
2017-04-21T05:51:15.881Z,7140
2017-04-21T05:52:28.109Z,7384
2017-04-21T05:53:40.657Z,7620
2017-04-21T05:54:52.894Z,7780
2017-04-21T05:56:05.423Z,7952
2017-04-21T05:57:17.967Z,8168
2017-04-21T05:58:30.510Z,8448
2017-04-21T05:59:42.735Z,8704
2017-04-21T06:00:54.931Z,8796
2017-04-21T06:02:06.869Z,8852
2017-04-21T06:03:19.544Z,8884
2017-04-21T06:04:32.418Z,8904
2017-04-21T06:05:44.931Z,8948
2017-04-21T06:06:57.456Z,9024
2017-04-21T06:08:09.954Z,9128
2017-04-21T06:09:22.475Z,9140
2017-04-21T06:10:35.000Z,9176
2017-04-21T06:11:47.515Z,9152
2017-04-21T06:13:00.039Z,9036
2017-04-21T06:14:12.557Z,8952
2017-04-21T06:15:25.078Z,8968
2017-04-21T06:16:37.578Z,8956
2017-04-21T06:17:50.116Z,9120
2017-04-21T06:19:02.643Z,9288
2017-04-21T06:20:15.186Z,9300
2017-04-21T06:21:27.110Z,9380
2017-04-21T06:22:39.681Z,9464
2017-04-21T06:23:52.474Z,9552
2017-04-21T06:25:05.016Z,9712
2017-04-21T06:26:17.572Z,9888
2017-04-21T06:27:29.812Z,10048
2017-04-21T06:28:42.338Z,10216
2017-04-21T06:29:54.882Z,10384
2017-04-21T06:31:07.420Z,10508
2017-04-21T06:32:19.626Z,10564
2017-04-21T06:33:32.192Z,10628
2017-04-21T06:34:44.736Z,10684
2017-04-21T06:35:56.956Z,10864
2017-04-21T06:37:09.483Z,11072
2017-04-21T06:38:21.722Z,11084
2017-04-21T06:39:33.963Z,10916
2017-04-21T06:40:46.512Z,10836
2017-04-21T06:41:59.013Z,10828
2017-04-21T06:43:11.533Z,11196
2017-04-21T06:44:23.729Z,12080
2017-04-21T06:45:36.226Z,12756
2017-04-21T06:46:48.765Z,12928
2017-04-21T06:48:01.313Z,13168
2017-04-21T06:49:13.838Z,13564
2017-04-21T06:50:26.358Z,13832
2017-04-21T06:51:38.878Z,14120
2017-04-21T06:52:51.376Z,14616
2017-04-21T06:54:03.896Z,15160
2017-04-21T06:55:16.095Z,15956
2017-04-21T06:56:28.622Z,16444
2017-04-21T06:57:41.184Z,16652
2017-04-21T06:58:53.711Z,16896
2017-04-21T07:00:06.254Z,17116
2017-04-21T07:01:18.815Z,17072
2017-04-21T07:02:31.351Z,16688
2017-04-21T07:03:43.593Z,16328
2017-04-21T07:04:56.140Z,16156
2017-04-21T07:06:08.685Z,16140
2017-04-21T07:07:21.251Z,16100
2017-04-21T07:08:33.797Z,16052
2017-04-21T07:09:46.321Z,15956
2017-04-21T07:10:58.881Z,15724
2017-04-21T07:12:11.103Z,15544
2017-04-21T07:13:23.678Z,15632
2017-04-21T07:14:36.205Z,15784
2017-04-21T07:15:48.765Z,15796
2017-04-21T07:17:01.314Z,15704
2017-04-21T07:18:13.941Z,15696
2017-04-21T07:19:26.461Z,15904
2017-04-21T07:20:38.986Z,16156
2017-04-21T07:21:51.209Z,16432
2017-04-21T07:23:03.774Z,16680
2017-04-21T07:24:16.298Z,16880
2017-04-21T07:25:28.845Z,17020
2017-04-21T07:26:41.382Z,17180
2017-04-21T07:27:53.928Z,17440
2017-04-21T07:29:06.462Z,17204
2017-04-21T07:30:19.008Z,16924
2017-04-21T07:31:31.545Z,16608
2017-04-21T07:32:43.783Z,16384
2017-04-21T07:33:56.315Z,16272
2017-04-21T07:35:08.700Z,16292
2017-04-21T07:36:21.271Z,16444
2017-04-21T07:37:38.875Z,16636
2017-04-21T07:38:51.547Z,16848
2017-04-21T07:40:04.863Z,16900
2017-04-21T07:41:17.091Z,16708
2017-04-21T07:42:29.332Z,16624
2017-04-21T07:43:41.871Z,16700
2017-04-21T07:44:54.402Z,16776
2017-04-21T07:46:07.274Z,16808
2017-04-21T07:47:19.568Z,16840
2017-04-21T07:48:32.092Z,16728
2017-04-21T07:49:44.633Z,16048
2017-04-21T07:50:56.853Z,15128
2017-04-21T07:52:09.392Z,15184
2017-04-21T07:53:21.649Z,15648
2017-04-21T07:54:34.194Z,14720
2017-04-21T07:55:46.706Z,14764
2017-04-21T07:56:59.224Z,15972
2017-04-21T07:58:11.172Z,16412
2017-04-21T07:59:23.376Z,16884
2017-04-21T08:01:55.442Z,17952
2017-04-21T08:03:07.380Z,16832
2017-04-21T08:04:19.614Z,16060
2017-04-21T08:05:32.149Z,15572
2017-04-21T08:06:44.775Z,14824
2017-04-21T08:07:56.400Z,14956
2017-04-21T08:09:08.646Z,14860
2017-04-21T08:10:20.894Z,13884
2017-04-21T08:11:32.814Z,12368
2017-04-21T08:12:45.347Z,13112
2017-04-21T08:13:57.882Z,14932
2017-04-21T08:15:10.421Z,17920
2017-04-21T08:16:22.942Z,16988
2017-04-21T08:17:34.881Z,17260
2017-04-21T08:18:47.384Z,18112
2017-04-21T08:19:59.884Z,18720
2017-04-21T08:21:12.102Z,19200
2017-04-21T08:22:24.603Z,19584
2017-04-21T08:23:37.144Z,20480
2017-04-21T08:24:49.642Z,19840
2017-04-21T08:26:02.160Z,18944
2017-04-21T08:27:14.783Z,18016
2017-04-21T08:28:27.370Z,18720
2017-04-21T08:29:39.924Z,19776
2017-04-21T08:30:52.419Z,19424
2017-04-21T08:32:04.932Z,17824
2017-04-21T08:33:17.461Z,18016
2017-04-21T08:34:29.989Z,18976
2017-04-21T08:35:42.527Z,20768
2017-04-21T08:36:54.747Z,21056
2017-04-21T08:38:07.276Z,19680
2017-04-21T08:39:19.216Z,18272
2017-04-21T08:40:31.737Z,20960
2017-04-21T08:41:43.960Z,21184
2017-04-21T08:42:56.507Z,22752
2017-04-21T08:44:09.024Z,22080
2017-04-21T08:45:21.544Z,17888
2017-04-21T08:46:34.290Z,16564
2017-04-21T08:47:47.018Z,19264
2017-04-21T08:48:59.560Z,21088
2017-04-21T08:51:54.525Z,24864
2017-04-21T08:53:07.072Z,26400
2017-04-21T08:54:19.017Z,27296
2017-04-21T08:55:31.277Z,27744
2017-04-21T08:56:43.786Z,27264
2017-04-21T08:57:56.020Z,26880
2017-04-21T08:59:08.769Z,26720
2017-04-21T09:00:21.365Z,26752
2017-04-21T09:01:33.585Z,27072
2017-04-21T09:02:45.813Z,27712
2017-04-21T09:03:58.332Z,28544
2017-04-21T09:05:10.570Z,29504
2017-04-21T09:06:23.143Z,29792
2017-04-21T09:07:35.365Z,29568
2017-04-21T09:08:47.918Z,29152
2017-04-21T09:10:00.454Z,28512
2017-04-21T09:11:12.734Z,28256
2017-04-21T09:12:25.284Z,28320
2017-04-21T09:13:37.198Z,28480
2017-04-21T09:14:49.451Z,28352
2017-04-21T09:16:01.391Z,28096
2017-04-21T09:17:13.965Z,28000
2017-04-21T09:18:26.285Z,28256
2017-04-21T09:19:38.830Z,28960
2017-04-21T09:20:51.206Z,29664
2017-04-21T09:22:03.447Z,30304
2017-04-21T09:23:16.062Z,30656
2017-04-21T09:24:28.291Z,30432
2017-04-21T09:25:40.511Z,30240
2017-04-21T09:26:53.050Z,30560
2017-04-21T09:28:05.570Z,30496
2017-04-21T09:29:17.847Z,29984
2017-04-21T09:30:30.045Z,26688
2017-04-21T09:33:35.003Z,24640
2017-04-21T09:36:20.289Z,26528
2017-04-21T09:37:57.683Z,28320
2017-04-21T09:39:09.912Z,28800
2017-04-21T09:40:22.138Z,31040
2017-04-21T09:41:34.654Z,31520
2017-04-21T09:43:43.150Z,31168
2017-04-21T09:45:13.166Z,31296
2017-04-21T09:46:25.445Z,31712
2017-04-21T09:47:37.677Z,32032
2017-04-21T09:48:50.207Z,31488
2017-04-21T09:50:02.782Z,31264
2017-04-21T09:51:36.760Z,30208
2017-04-21T10:04:47.567Z,38336
2017-04-21T10:09:29.590Z,38944
2017-04-21T10:10:42.130Z,38976
2017-04-21T10:11:54.680Z,38944
2017-04-21T10:13:07.239Z,38496
2017-04-21T10:14:19.743Z,38624
2017-04-21T10:15:32.267Z,39392
2017-04-21T10:16:44.502Z,39232
2017-04-21T10:17:57.034Z,39328
2017-04-21T10:19:09.622Z,39712
2017-04-21T10:20:21.895Z,38624
2017-04-21T10:21:34.419Z,37120
2017-04-21T10:22:46.968Z,36096
2017-04-21T10:23:58.913Z,34720
2017-04-21T10:25:11.156Z,33600
2017-04-21T10:26:23.425Z,30944
2017-04-21T10:27:36.268Z,32544
2017-04-21T10:28:48.822Z,33056
2017-04-21T10:30:01.366Z,33536
2017-04-21T10:31:13.906Z,34432
2017-04-21T10:32:26.453Z,34400
2017-04-21T10:33:38.983Z,34624
2017-04-21T10:34:51.244Z,34624
2017-04-21T10:36:03.765Z,35456
2017-04-21T10:37:16.315Z,36160
2017-04-21T10:38:28.854Z,37056
2017-04-21T10:39:41.407Z,38336
2017-04-21T10:40:53.646Z,38016
2017-04-21T10:42:06.179Z,38528
2017-04-21T10:43:19.223Z,39840
2017-04-21T10:44:31.767Z,38976
2017-04-21T10:45:44.290Z,40544
2017-04-21T10:46:56.813Z,40768
2017-04-21T10:48:09.059Z,41344
2017-04-21T10:49:21.595Z,44224
2017-04-21T10:50:34.145Z,44192
2017-04-21T10:51:46.391Z,45472
2017-04-21T10:52:58.894Z,46656
2017-04-21T10:54:11.425Z,44384
2017-04-21T10:55:23.983Z,64608
2017-04-21T10:56:36.528Z,49536
2017-04-21T10:57:49.071Z,43904
2017-04-21T10:59:01.645Z,44672
2017-04-21T11:00:13.608Z,43744
2017-04-21T11:01:26.164Z,45120
2017-04-21T11:02:38.705Z,45824
2017-04-21T11:03:51.225Z,45952
2017-04-21T11:05:03.467Z,45312
2017-04-21T11:06:15.693Z,51616
2017-04-21T11:07:27.941Z,46560
2017-04-21T11:08:40.480Z,52864
2017-04-21T11:09:52.998Z,47072
2017-04-21T11:11:05.225Z,44864
2017-04-21T11:12:17.439Z,46016
2017-04-21T11:13:29.718Z,51520
2017-04-21T11:14:42.272Z,46336
2017-04-21T11:15:54.790Z,47616
2017-04-21T11:17:07.776Z,46592
2017-04-21T11:18:20.001Z,49536
2017-04-21T11:19:32.250Z,49952
2017-04-21T11:20:44.473Z,49504
2017-04-21T11:21:56.993Z,46496
2017-04-21T11:23:09.535Z,53408
2017-04-21T11:24:22.056Z,45952
2017-04-21T11:25:34.558Z,44576
2017-04-21T11:26:47.076Z,46336
2017-04-21T11:27:59.621Z,46432
2017-04-21T11:29:12.210Z,46016
2017-04-21T11:30:24.760Z,51040
2017-04-21T11:31:37.326Z,51264
2017-04-21T11:32:49.959Z,48864
2017-04-21T11:34:02.516Z,41376
2017-04-21T11:35:15.062Z,39968
2017-04-21T11:36:27.611Z,48736
2017-04-21T11:37:40.164Z,43328
2017-04-21T11:38:52.416Z,49088
2017-04-21T11:40:04.980Z,45824
2017-04-21T11:41:17.501Z,49440
2017-04-21T11:42:30.036Z,43264
2017-04-21T11:43:42.265Z,55072
2017-04-21T11:44:54.807Z,53952
2017-04-21T11:46:07.357Z,46944
2017-04-21T11:47:19.885Z,51104
2017-04-21T11:48:32.428Z,47328
2017-04-21T11:49:44.973Z,48416
2017-04-21T11:50:57.737Z,46432
2017-04-21T11:52:10.255Z,41472
2017-04-21T11:53:22.478Z,44480
2017-04-21T11:54:35.006Z,41184
2017-04-21T11:55:47.520Z,42432
2017-04-21T11:56:59.771Z,49504
2017-04-21T11:58:12.319Z,45440
2017-04-21T11:59:24.867Z,37920
2017-04-21T12:00:37.435Z,43040
2017-04-21T12:01:49.954Z,44640
2017-04-21T12:03:02.533Z,39808
2017-04-21T12:04:15.075Z,44224
2017-04-21T12:05:27.592Z,37952
2017-04-21T12:06:40.210Z,36608
2017-04-21T12:07:52.586Z,43136
2017-04-21T12:09:05.133Z,43552
2017-04-21T12:10:17.675Z,46016
2017-04-21T12:11:30.221Z,45280
2017-04-21T12:12:42.760Z,45152
2017-04-21T12:13:55.318Z,47008
2017-04-21T12:15:07.576Z,43008
2017-04-21T12:16:20.106Z,41856
2017-04-21T12:17:32.326Z,46176
2017-04-21T12:18:44.573Z,39392
2017-04-21T12:19:56.794Z,39712
2017-04-21T12:21:09.343Z,39808
2017-04-21T12:22:21.905Z,39072
2017-04-21T12:23:34.435Z,38304
2017-04-21T12:24:46.957Z,38336
2017-04-21T12:25:59.178Z,37792
2017-04-21T12:27:11.721Z,38720
2017-04-21T12:28:23.960Z,37696
2017-04-21T12:29:36.160Z,39264
2017-04-21T12:30:48.727Z,37248
2017-04-21T12:32:00.955Z,37280
2017-04-21T12:33:13.227Z,39680
2017-04-21T12:34:25.769Z,39168
2017-04-21T12:35:37.992Z,42304
2017-04-21T12:36:50.511Z,41696
2017-04-21T12:38:03.032Z,39200
2017-04-21T12:39:15.552Z,38080
2017-04-21T12:40:27.649Z,36416
2017-04-21T12:41:40.422Z,36640
2017-04-21T12:42:52.966Z,36000
2017-04-21T12:44:05.239Z,35296
2017-04-21T12:45:17.803Z,35680
2017-04-21T12:46:30.024Z,37216
2017-04-21T12:47:42.578Z,38080
2017-04-21T12:48:55.123Z,38656
2017-04-21T12:50:07.083Z,39520
2017-04-21T12:51:19.316Z,39104
2017-04-21T12:52:31.279Z,36544
2017-04-21T12:53:43.829Z,37632
2017-04-21T12:54:56.053Z,38240
2017-04-21T12:56:08.295Z,38560
2017-04-21T12:57:20.819Z,35360
2017-04-21T12:58:33.454Z,35104
2017-04-21T12:59:45.912Z,33952
2017-04-21T13:00:58.185Z,33984
2017-04-21T13:02:10.725Z,34144
2017-04-21T13:03:22.651Z,33728
2017-04-21T13:04:35.171Z,32960
2017-04-21T13:05:47.392Z,32384
2017-04-21T13:06:59.936Z,30816
2017-04-21T13:08:12.496Z,29952
2017-04-21T13:09:24.752Z,28704
2017-04-21T13:10:37.280Z,28576
2017-04-21T13:11:49.792Z,28640
2017-04-21T13:13:02.338Z,28096
2017-04-21T13:14:14.907Z,30080
2017-04-21T13:15:27.183Z,31136
2017-04-21T13:16:39.729Z,31616
2017-04-21T13:17:52.078Z,31808
2017-04-21T13:19:04.613Z,31712
2017-04-21T13:20:17.164Z,31040
2017-04-21T13:21:29.713Z,30368
2017-04-21T13:22:41.963Z,29120
2017-04-21T13:23:54.521Z,28832
2017-04-21T13:25:07.075Z,27584
2017-04-21T13:26:19.322Z,27968
2017-04-21T13:27:31.840Z,28896
2017-04-21T13:28:44.403Z,29664
2017-04-21T13:29:56.948Z,30016
2017-04-21T13:31:09.181Z,30816
2017-04-21T13:32:21.726Z,29568
2017-04-21T13:33:34.312Z,27104
2017-04-21T13:34:46.864Z,24608
2017-04-21T13:35:59.091Z,21632
2017-04-21T13:37:11.777Z,19296
2017-04-21T13:38:24.309Z,19392
2017-04-21T13:39:36.823Z,20608
2017-04-21T13:40:49.370Z,21472
2017-04-21T13:42:01.590Z,21312
2017-04-21T13:43:14.135Z,20320
2017-04-21T13:44:26.657Z,19520
2017-04-21T13:45:38.869Z,19104
2017-04-21T13:46:51.128Z,19680
2017-04-21T13:48:03.347Z,20480
2017-04-21T13:49:15.924Z,22272
2017-04-21T13:50:28.162Z,22752
2017-04-21T13:51:40.711Z,20672
2017-04-21T13:52:53.249Z,18272
2017-04-21T13:54:05.803Z,15888
2017-04-21T13:55:18.344Z,13548
2017-04-21T13:56:31.036Z,11684
2017-04-21T13:57:42.961Z,10172
2017-04-21T13:58:55.214Z,9012
2017-04-21T14:00:07.778Z,8228
2017-04-21T14:01:19.998Z,7632
2017-04-21T14:02:31.940Z,7100
2017-04-21T14:03:44.495Z,6880
2017-04-21T14:04:57.108Z,6784
2017-04-21T14:06:09.637Z,6556
2017-04-21T14:07:22.209Z,6544
2017-04-21T14:08:34.766Z,6504
2017-04-21T14:09:47.005Z,6684
2017-04-21T14:10:59.546Z,7300
2017-04-21T14:12:11.808Z,8636
2017-04-21T14:13:24.337Z,11168
2017-04-21T14:14:36.885Z,14224
2017-04-21T14:15:49.393Z,18624
2017-04-21T14:17:01.941Z,19744
2017-04-21T14:18:14.470Z,20800
2017-04-21T14:19:26.705Z,20448
2017-04-21T14:20:39.375Z,18112
2017-04-21T14:21:51.580Z,17176
2017-04-21T14:23:04.126Z,19136
2017-04-21T14:24:16.673Z,19232
2017-04-21T14:25:29.194Z,17792
2017-04-21T14:26:41.415Z,14960
2017-04-21T14:27:53.330Z,12548
2017-04-21T14:29:05.885Z,12048
2017-04-21T14:30:18.430Z,12216
2017-04-21T14:31:30.352Z,12000
2017-04-21T14:32:42.593Z,13700
2017-04-21T14:33:55.110Z,15400
2017-04-21T14:35:07.315Z,16456
2017-04-21T14:36:19.998Z,19104
2017-04-21T14:37:32.254Z,18656
2017-04-21T14:38:44.215Z,17452
2017-04-21T14:39:56.818Z,16900
2017-04-21T14:41:09.343Z,15796
2017-04-21T14:42:21.585Z,13908
2017-04-21T14:43:33.810Z,12372
2017-04-21T14:44:46.080Z,11992
2017-04-21T14:45:58.602Z,11380
2017-04-21T14:47:11.152Z,11672
2017-04-21T14:48:23.686Z,12924
2017-04-21T14:49:36.242Z,14172
2017-04-21T14:50:48.777Z,13164
2017-04-21T14:52:01.303Z,11544
2017-04-21T14:53:13.830Z,12008
2017-04-21T14:54:25.462Z,12148
2017-04-21T14:55:37.969Z,11372
2017-04-21T14:56:50.531Z,9784
2017-04-21T14:58:03.059Z,7984
2017-04-21T14:59:15.284Z,6804
2017-04-21T15:00:27.969Z,6712
2017-04-21T15:01:40.515Z,6820
2017-04-21T15:02:52.740Z,6296
2017-04-21T15:04:05.285Z,5788
2017-04-21T15:05:17.212Z,6748
2017-04-21T15:06:29.746Z,9204
2017-04-21T15:07:41.973Z,12596
2017-04-21T15:08:54.195Z,14820
2017-04-21T15:10:06.758Z,15500
2017-04-21T15:11:18.993Z,16044
2017-04-21T15:12:30.933Z,15712
2017-04-21T15:13:43.458Z,14032
2017-04-21T15:14:56.006Z,12604
2017-04-21T15:16:08.527Z,11936
2017-04-21T15:17:20.762Z,10084
2017-04-21T15:18:33.308Z,9540
2017-04-21T15:19:45.925Z,11060
2017-04-21T15:20:58.629Z,14056
2017-04-21T15:22:11.150Z,15440
2017-04-21T15:23:23.676Z,15940
2017-04-21T15:24:36.217Z,15108
2017-04-21T15:25:48.738Z,13928
2017-04-21T15:27:01.261Z,13616
2017-04-21T15:28:13.484Z,13908
2017-04-21T15:29:25.426Z,13944
2017-04-21T15:30:37.968Z,13752
2017-04-21T15:31:50.499Z,13576
2017-04-21T15:33:03.035Z,12984
2017-04-21T15:34:15.562Z,12656
2017-04-21T15:35:28.102Z,12768
2017-04-21T15:36:40.651Z,12896
2017-04-21T15:37:52.872Z,12800
2017-04-21T15:39:05.414Z,12588
2017-04-21T15:40:17.943Z,12388
2017-04-21T15:41:30.611Z,12212
2017-04-21T15:42:43.431Z,11964
2017-04-21T15:43:55.952Z,11816
2017-04-21T15:45:08.489Z,11636
2017-04-21T15:46:21.064Z,11256
2017-04-21T15:47:33.586Z,10868
2017-04-21T15:48:46.106Z,10324
2017-04-21T15:49:58.650Z,10308
2017-04-21T15:51:11.207Z,10280
2017-04-21T15:52:23.448Z,9976
2017-04-21T15:53:35.970Z,10012
2017-04-21T15:54:48.483Z,10200
2017-04-21T15:56:01.028Z,9760
2017-04-21T15:57:13.286Z,8584
2017-04-21T15:58:25.838Z,7824
2017-04-21T15:59:38.628Z,7548
2017-04-21T16:00:51.150Z,6656
2017-04-21T16:02:03.936Z,5516
2017-04-21T16:03:16.290Z,4800
2017-04-21T16:04:28.841Z,4812
2017-04-21T16:05:41.378Z,5164
2017-04-21T16:06:53.926Z,5088
2017-04-21T16:08:06.475Z,5164
2017-04-21T16:09:19.019Z,4784
2017-04-21T16:10:31.542Z,4584
2017-04-21T16:11:44.061Z,4844
2017-04-21T16:12:56.325Z,4704
2017-04-21T16:14:08.851Z,4364
2017-04-21T16:15:21.373Z,4328
2017-04-21T16:16:33.320Z,4212
2017-04-21T16:17:45.866Z,4220
2017-04-21T16:18:58.104Z,4260
2017-04-21T16:20:10.329Z,4156
2017-04-21T16:21:22.825Z,3836
2017-04-21T16:22:35.174Z,3452
2017-04-21T16:23:47.792Z,3600
2017-04-21T16:25:00.316Z,3660
2017-04-21T16:26:12.536Z,3508
2017-04-21T16:27:25.086Z,3488
2017-04-21T16:28:37.629Z,3628
2017-04-21T16:29:49.875Z,3680
2017-04-21T16:31:02.417Z,3544
2017-04-21T16:32:14.621Z,3356
2017-04-21T16:33:27.164Z,3108
2017-04-21T16:34:39.709Z,3056